TimeMST,TemperatureF,Dew PointF,Humidity,Sea Level PressureIn,VisibilityMPH,Wind Direction,Wind SpeedMPH,Gust SpeedMPH,PrecipitationIn,Events,Conditions,WindDirDegrees,DateUTC
12:35 AM,30.0,21.4,70,30.38,10.0,East,3.5,-,N/A,,Clear,90,2012-11-13 07:35:00
12:55 AM,29.1,20.5,70,30.39,10.0,Calm,Calm,-,N/A,,Clear,0,2012-11-13 07:55:00
1:15 AM,28.8,20.3,71,30.38,10.0,Calm,Calm,-,N/A,,Clear,0,2012-11-13 08:15:00
1:35 AM,27.5,21.0,77,30.38,10.0,Calm,Calm,-,N/A,,Scattered Clouds,0,2012-11-13 08:35:00
1:55 AM,28.0,20.5,73,30.38,10.0,Calm,Calm,-,N/A,,Mostly Cloudy,0,2012-11-13 08:55:00
2:35 AM,26.2,20.7,79,30.38,10.0,Calm,Calm,-,N/A,,Mostly Cloudy,0,2012-11-13 09:35:00
2:55 AM,26.4,20.3,78,30.38,10.0,NNE,4.6,-,N/A,,Scattered Clouds,30,2012-11-13 09:55:00
3:15 AM,27.7,20.1,73,30.38,10.0,NE,3.5,-,N/A,,Clear,50,2012-11-13 10:15:00
3:35 AM,27.1,20.5,76,30.38,10.0,Calm,Calm,-,N/A,,Scattered Clouds,0,2012-11-13 10:35:00
3:55 AM,26.4,20.3,78,30.38,10.0,Calm,Calm,-,N/A,,Scattered Clouds,0,2012-11-13 10:55:00
4:15 AM,26.6,20.3,77,30.39,10.0,Calm,Calm,-,N/A,,Mostly Cloudy,0,2012-11-13 11:15:00
4:35 AM,26.2,20.7,79,30.39,10.0,Calm,Calm,-,N/A,,Mostly Cloudy,0,2012-11-13 11:35:00
4:55 AM,25.7,20.3,80,30.40,10.0,WNW,3.5,-,N/A,,Scattered Clouds,300,2012-11-13 11:55:00
5:15 AM,25.2,20.1,81,30.40,10.0,Calm,Calm,-,N/A,,Scattered Clouds,0,2012-11-13 12:15:00
5:35 AM,25.2,19.8,80,30.40,10.0,Calm,Calm,-,N/A,,Scattered Clouds,0,2012-11-13 12:35:00
5:55 AM,24.4,19.0,80,30.40,10.0,East,3.5,-,N/A,,Clear,80,2012-11-13 12:55:00
6:15 AM,22.8,18.3,83,30.41,10.0,NE,3.5,-,N/A,,Clear,50,2012-11-13 13:15:00
6:35 AM,22.6,18.5,84,30.41,10.0,Calm,Calm,-,N/A,,Clear,0,2012-11-13 13:35:00
6:55 AM,21.9,17.6,83,30.41,10.0,Calm,Calm,-,N/A,,Clear,0,2012-11-13 13:55:00
7:15 AM,23.0,18.3,82,30.42,10.0,Calm,Calm,-,N/A,,Clear,0,2012-11-13 14:15:00
7:35 AM,23.9,19.2,82,30.42,10.0,Calm,Calm,-,N/A,,Clear,0,2012-11-13 14:35:00
7:55 AM,24.8,19.0,79,30.43,10.0,Calm,Calm,-,N/A,,Clear,0,2012-11-13 14:55:00
8:15 AM,26.6,19.2,74,30.43,10.0,Calm,Calm,-,N/A,,Clear,0,2012-11-13 15:15:00
8:35 AM,28.0,20.1,72,30.43,10.0,Calm,Calm,-,N/A,,Clear,0,2012-11-13 15:35:00
9:15 AM,32.0,21.2,64,30.43,10.0,Calm,Calm,-,N/A,,Clear,0,2012-11-13 16:15:00
9:35 AM,32.5,21.6,64,30.43,10.0,Calm,Calm,-,N/A,,Clear,0,2012-11-13 16:35:00
9:55 AM,33.8,21.7,61,30.43,10.0,Calm,Calm,-,N/A,,Clear,0,2012-11-13 16:55:00
10:15 AM,34.9,21.4,58,30.43,10.0,Calm,Calm,-,N/A,,Clear,0,2012-11-13 17:15:00
10:35 AM,36.0,21.4,55,30.43,10.0,Calm,Calm,-,N/A,,Clear,0,2012-11-13 17:35:00
10:55 AM,37.6,21.2,52,30.41,10.0,Calm,Calm,-,N/A,,Clear,0,2012-11-13 17:55:00
11:15 AM,39.0,19.6,46,30.41,10.0,Calm,Calm,-,N/A,,Clear,0,2012-11-13 18:15:00
11:35 AM,40.1,18.3,42,30.38,10.0,Calm,Calm,-,N/A,,Clear,0,2012-11-13 18:35:00
11:55 AM,42.1,18.0,38,30.37,10.0,ESE,3.5,-,N/A,,Clear,110,2012-11-13 18:55:00
12:15 PM,43.0,18.5,37,30.37,10.0,Calm,Calm,-,N/A,,Clear,0,2012-11-13 19:15:00
12:35 PM,43.7,17.1,34,30.36,10.0,Calm,Calm,-,N/A,,Clear,0,2012-11-13 19:35:00
12:55 PM,44.6,17.1,33,30.35,10.0,Calm,Calm,-,N/A,,Clear,0,2012-11-13 19:55:00
1:15 PM,45.1,16.7,32,30.34,10.0,Calm,Calm,-,N/A,,Clear,0,2012-11-13 20:15:00
1:35 PM,46.8,16.2,29,30.34,10.0,Calm,Calm,-,N/A,,Clear,0,2012-11-13 20:35:00
1:55 PM,47.5,15.6,28,30.34,10.0,Calm,Calm,-,N/A,,Clear,0,2012-11-13 20:55:00
2:15 PM,48.0,16.3,28,30.33,10.0,SW,3.5,-,N/A,,Clear,220,2012-11-13 21:15:00
2:35 PM,48.4,16.2,28,30.32,10.0,WNW,3.5,-,N/A,,Clear,290,2012-11-13 21:35:00
2:55 PM,48.2,14.7,26,30.32,10.0,Calm,Calm,-,N/A,,Clear,0,2012-11-13 21:55:00
3:15 PM,49.3,15.1,26,30.32,10.0,Calm,Calm,-,N/A,,Clear,0,2012-11-13 22:15:00
3:35 PM,48.4,16.0,27,30.32,10.0,Calm,Calm,-,N/A,,Clear,0,2012-11-13 22:35:00
3:55 PM,48.6,16.9,28,30.32,10.0,Calm,Calm,-,N/A,,Clear,0,2012-11-13 22:55:00
4:15 PM,48.6,18.3,30,30.32,10.0,Calm,Calm,-,N/A,,Clear,0,2012-11-13 23:15:00
4:35 PM,47.5,19.2,33,30.32,10.0,SW,6.9,-,N/A,,Clear,230,2012-11-13 23:35:00
4:55 PM,45.9,20.1,36,30.32,10.0,WSW,6.9,-,N/A,,Clear,240,2012-11-13 23:55:00
5:15 PM,44.2,22.6,42,30.32,10.0,WSW,5.8,-,N/A,,Clear,250,2012-11-14 00:15:00
5:35 PM,42.6,24.6,49,30.33,10.0,West,5.8,-,N/A,,Clear,270,2012-11-14 00:35:00
5:55 PM,42.1,25.3,52,30.34,10.0,WNW,4.6,-,N/A,,Clear,290,2012-11-14 00:55:00
6:15 PM,38.8,24.8,57,30.34,10.0,Calm,Calm,-,N/A,,Clear,0,2012-11-14 01:15:00
6:35 PM,37.2,25.0,61,30.34,10.0,NE,4.6,-,N/A,,Clear,40,2012-11-14 01:35:00
6:55 PM,35.6,23.0,60,30.34,10.0,NE,4.6,-,N/A,,Clear,50,2012-11-14 01:55:00
7:15 PM,35.1,23.7,63,30.34,10.0,Calm,Calm,-,N/A,,Clear,0,2012-11-14 02:15:00
7:35 PM,36.0,21.2,55,30.35,10.0,Calm,Calm,-,N/A,,Clear,0,2012-11-14 02:35:00
7:55 PM,32.2,21.2,64,30.35,10.0,ENE,4.6,-,N/A,,Clear,70,2012-11-14 02:55:00
8:15 PM,32.0,21.7,66,30.36,10.0,NE,4.6,-,N/A,,Clear,50,2012-11-14 03:15:00
8:35 PM,33.1,21.6,63,30.36,10.0,East,3.5,-,N/A,,Clear,80,2012-11-14 03:35:00
8:55 PM,32.9,21.2,62,30.36,10.0,NE,5.8,-,N/A,,Clear,50,2012-11-14 03:55:00
9:15 PM,31.8,20.8,64,30.36,10.0,East,3.5,-,N/A,,Clear,100,2012-11-14 04:15:00
9:35 PM,30.2,20.3,67,30.36,10.0,East,5.8,-,N/A,,Clear,100,2012-11-14 04:35:00
9:55 PM,30.2,19.9,66,30.36,10.0,East,4.6,-,N/A,,Clear,100,2012-11-14 04:55:00
10:15 PM,28.8,20.1,70,30.36,10.0,Calm,Calm,-,N/A,,Clear,0,2012-11-14 05:15:00
10:35 PM,29.8,20.8,69,30.36,10.0,Calm,Calm,-,N/A,,Clear,0,2012-11-14 05:35:00
10:55 PM,31.3,21.2,66,30.36,10.0,Calm,Calm,-,N/A,,Clear,0,2012-11-14 05:55:00
11:15 PM,30.4,20.3,66,30.37,10.0,ESE,4.6,-,N/A,,Clear,120,2012-11-14 06:15:00
11:35 PM,27.0,19.4,73,30.37,10.0,East,4.6,-,N/A,,Clear,90,2012-11-14 06:35:00
11:55 PM,27.5,19.4,72,30.38,10.0,ENE,4.6,-,N/A,,Clear,60,2012-11-14 06:55:00